Flight Briefing for GRZ503

Departure Arrival
Ted Stevens Anchorage International Airport (PANC)
Click to view FAA NOTAMS
Fairbanks International Airport (PAFA)
Click to view FAA NOTAMS
Departure Time Arrival Time
N/A N/A
Aircraft Distance
B727-200F 227nm
Departure METAR Arrival METAR
PANC 232153Z 15009KT 10SM FEW045 BKN080 OVC150 13/06 A3003 RMK AO2 SLP168 T01280061 $ PAFA 232153Z 26016KT 10SM SCT090 BKN120 BKN200 19/03 A2986 RMK AO2 SLP115 T01890033
Suggested Route
CAWIN LIBER3


View recent IFR Routes data
Notes



Charts and Procedures

Charts for PANC
No chart available
Charts for PAFA
No chart available

Windy.com Weather Map